createdAt,value
2019-03-26T00:00:08.098Z,86.44
2019-03-26T00:02:37.609Z,86.43
2019-03-26T00:05:07.119Z,86.47
2019-03-26T00:07:36.602Z,86.56
2019-03-26T00:10:06.090Z,86.52
2019-03-26T00:12:35.531Z,86.56
2019-03-26T00:15:06.312Z,86.54
2019-03-26T00:17:35.721Z,86.21
2019-03-26T00:20:06.234Z,86.26
2019-03-26T00:22:35.639Z,86.27
2019-03-26T00:25:06.214Z,86.27
2019-03-26T00:27:35.623Z,86.06
2019-03-26T00:30:05.596Z,86.47
2019-03-26T00:32:35.010Z,86.90
2019-03-26T00:35:04.716Z,87.07
2019-03-26T00:37:34.135Z,87.37
2019-03-26T00:40:04.044Z,87.58
2019-03-26T00:42:33.454Z,87.88
2019-03-26T00:45:02.895Z,87.88
2019-03-26T00:47:32.304Z,88.03
2019-03-26T00:50:01.754Z,87.72
2019-03-26T00:52:31.165Z,87.85
2019-03-26T00:55:00.615Z,87.64
2019-03-26T00:57:30.034Z,87.51
2019-03-26T00:59:59.485Z,87.83
2019-03-26T01:02:28.897Z,87.97
2019-03-26T01:04:58.343Z,87.88
2019-03-26T01:07:27.751Z,88.21
2019-03-26T01:09:57.196Z,88.75
2019-03-26T01:12:26.608Z,88.22
2019-03-26T01:14:56.048Z,88.38
2019-03-26T01:17:25.459Z,88.27
2019-03-26T01:19:54.891Z,88.63
2019-03-26T01:22:24.308Z,88.40
2019-03-26T01:24:53.743Z,87.77
2019-03-26T01:27:23.179Z,88.12
2019-03-26T01:29:52.612Z,87.75
2019-03-26T01:32:22.029Z,87.50
2019-03-26T01:34:51.772Z,87.33
2019-03-26T01:37:21.182Z,87.28
2019-03-26T01:39:50.621Z,87.11
2019-03-26T01:42:20.524Z,87.16
2019-03-26T01:44:49.966Z,86.83
2019-03-26T01:47:19.377Z,86.69
2019-03-26T01:49:48.830Z,87.02
2019-03-26T01:52:18.234Z,86.48
2019-03-26T01:54:47.684Z,86.81
2019-03-26T01:57:17.641Z,86.03
2019-03-26T01:59:47.100Z,85.79
2019-03-26T02:02:16.523Z,85.89
2019-03-26T02:04:58.866Z,85.86
2019-03-26T02:07:17.651Z,85.80
2019-03-26T02:09:47.093Z,86.03
2019-03-26T02:12:16.502Z,87.08
2019-03-26T02:14:45.956Z,86.18
2019-03-26T02:17:15.373Z,86.68
2019-03-26T02:19:44.810Z,86.68
2019-03-26T02:22:14.223Z,87.39
2019-03-26T02:24:43.673Z,87.79
2019-03-26T02:27:13.077Z,87.68
2019-03-26T02:29:42.502Z,87.43
2019-03-26T02:32:11.912Z,87.23
2019-03-26T02:34:41.351Z,87.29
2019-03-26T02:37:10.796Z,86.95
2019-03-26T02:39:40.199Z,87.15
2019-03-26T02:42:09.631Z,86.93
2019-03-26T02:44:39.034Z,86.95
2019-03-26T02:47:08.466Z,86.77
2019-03-26T02:49:37.870Z,86.52
2019-03-26T02:52:07.313Z,86.39
2019-03-26T02:54:36.751Z,86.36
2019-03-26T02:57:06.196Z,85.94
2019-03-26T02:59:35.599Z,85.63
2019-03-26T03:02:05.051Z,85.72
2019-03-26T03:04:34.467Z,85.86
2019-03-26T03:07:03.919Z,85.93
2019-03-26T03:09:33.330Z,86.25
2019-03-26T03:12:02.767Z,86.75
2019-03-26T03:14:32.172Z,87.13
2019-03-26T03:17:01.604Z,87.16
2019-03-26T03:19:31.030Z,87.20
2019-03-26T03:22:00.457Z,87.58
2019-03-26T03:24:29.858Z,87.64
2019-03-26T03:26:59.301Z,87.55
2019-03-26T03:29:28.705Z,87.78
2019-03-26T03:31:58.141Z,87.85
2019-03-26T03:34:27.556Z,87.70
2019-03-26T03:36:56.984Z,87.98
2019-03-26T03:39:26.385Z,88.09
2019-03-26T03:41:55.820Z,88.10
2019-03-26T03:44:25.233Z,88.19
2019-03-26T03:46:54.676Z,87.78
2019-03-26T03:49:24.102Z,87.94
2019-03-26T03:51:53.588Z,88.41
2019-03-26T03:54:23.017Z,88.55
2019-03-26T03:56:53.305Z,88.57
2019-03-26T03:59:22.708Z,88.55
2019-03-26T04:01:52.146Z,88.65
2019-03-26T04:04:21.553Z,88.68
2019-03-26T04:06:50.989Z,88.82
2019-03-26T04:09:20.601Z,88.93
2019-03-26T04:11:50.028Z,88.94
2019-03-26T04:14:19.447Z,89.08
2019-03-26T04:16:48.904Z,89.39
2019-03-26T04:19:18.322Z,89.62
2019-03-26T04:21:47.759Z,89.59
2019-03-26T04:24:17.589Z,89.71
2019-03-26T04:26:47.031Z,89.67
2019-03-26T04:29:16.460Z,89.64
2019-03-26T04:31:45.896Z,89.08
2019-03-26T04:34:15.315Z,89.16
2019-03-26T04:36:44.753Z,89.26
2019-03-26T04:39:14.163Z,89.28
2019-03-26T04:41:43.624Z,89.24
2019-03-26T04:44:13.072Z,89.32
2019-03-26T04:46:45.256Z,89.43
2019-03-26T04:49:15.012Z,89.23
2019-03-26T04:51:44.427Z,89.13
2019-03-26T04:54:13.871Z,89.06
2019-03-26T04:56:43.320Z,89.06
2019-03-26T04:59:12.791Z,88.91
2019-03-26T05:01:42.209Z,88.76
2019-03-26T05:04:11.852Z,88.90
2019-03-26T05:06:41.248Z,88.89
2019-03-26T05:09:10.684Z,88.60
2019-03-26T05:11:40.180Z,88.51
2019-03-26T05:14:09.614Z,88.42
2019-03-26T05:16:39.027Z,88.60
2019-03-26T05:19:08.463Z,88.62
2019-03-26T05:21:37.876Z,88.76
2019-03-26T05:24:07.316Z,88.73
2019-03-26T05:26:36.727Z,88.80
2019-03-26T05:29:06.169Z,88.80
2019-03-26T05:31:35.585Z,88.98
2019-03-26T05:34:05.030Z,88.99
2019-03-26T05:36:34.450Z,88.73
2019-03-26T05:39:05.165Z,88.87
2019-03-26T05:41:34.724Z,88.86
2019-03-26T05:44:04.169Z,88.72
2019-03-26T05:46:33.584Z,88.42
2019-03-26T05:49:03.050Z,88.46
2019-03-26T05:51:32.532Z,88.37
2019-03-26T05:54:01.996Z,88.40
2019-03-26T05:56:32.370Z,88.40
2019-03-26T05:59:02.025Z,88.27
2019-03-26T06:01:31.440Z,87.68
2019-03-26T06:04:00.888Z,87.52
2019-03-26T06:06:30.300Z,87.52
2019-03-26T06:08:59.747Z,87.55
2019-03-26T06:11:29.170Z,87.54
2019-03-26T06:13:58.623Z,87.70
2019-03-26T06:16:37.928Z,87.62
2019-03-26T06:18:59.235Z,87.75
2019-03-26T06:21:28.674Z,87.73
2019-03-26T06:23:58.135Z,87.57
2019-03-26T06:26:27.543Z,87.47
2019-03-26T06:28:56.997Z,87.01
2019-03-26T06:31:26.407Z,87.06
2019-03-26T06:33:55.843Z,86.79
2019-03-26T06:36:25.763Z,86.14
2019-03-26T06:38:55.288Z,86.15
2019-03-26T06:41:24.704Z,86.53
2019-03-26T06:43:54.173Z,86.10
2019-03-26T06:46:23.583Z,85.84
2019-03-26T06:48:53.032Z,86.21
2019-03-26T06:51:25.190Z,85.74
2019-03-26T06:53:55.595Z,85.34
2019-03-26T06:56:25.037Z,84.32
2019-03-26T06:58:54.475Z,84.27
2019-03-26T07:01:23.972Z,85.17
2019-03-26T07:03:53.432Z,84.51
2019-03-26T07:06:23.153Z,84.23
2019-03-26T07:08:52.601Z,83.73
2019-03-26T07:11:22.334Z,83.57
2019-03-26T07:13:51.743Z,83.37
2019-03-26T07:16:21.190Z,83.68
2019-03-26T07:18:50.606Z,83.34
2019-03-26T07:21:20.051Z,82.54
2019-03-26T07:23:49.463Z,81.58
2019-03-26T07:26:19.656Z,81.44
2019-03-26T07:28:49.066Z,80.50
2019-03-26T07:31:18.511Z,80.77
2019-03-26T07:33:47.918Z,80.45
2019-03-26T07:36:17.733Z,81.32
2019-03-26T07:38:47.147Z,81.42
2019-03-26T07:41:16.614Z,81.16
2019-03-26T07:43:46.024Z,81.22
2019-03-26T07:46:15.479Z,80.68
2019-03-26T07:48:44.888Z,80.89
2019-03-26T07:51:15.274Z,81.31
2019-03-26T07:53:44.684Z,81.65
2019-03-26T07:56:14.124Z,81.41
2019-03-26T07:58:43.534Z,81.07
2019-03-26T08:01:12.978Z,81.38
2019-03-26T08:03:42.390Z,80.99
2019-03-26T08:06:11.823Z,81.18
2019-03-26T08:08:41.237Z,80.79
2019-03-26T08:11:10.677Z,81.07
2019-03-26T08:13:41.089Z,80.29
2019-03-26T08:16:10.633Z,79.99
2019-03-26T08:18:40.036Z,80.07
2019-03-26T08:21:09.477Z,79.88
2019-03-26T08:23:38.896Z,79.91
2019-03-26T08:26:08.343Z,79.74
2019-03-26T08:28:37.753Z,79.40
2019-03-26T08:31:07.206Z,79.73
2019-03-26T08:33:36.628Z,80.39
2019-03-26T08:36:06.071Z,80.52
2019-03-26T08:38:35.484Z,80.53
2019-03-26T08:41:05.105Z,80.79
2019-03-26T08:43:34.520Z,81.33
2019-03-26T08:46:03.976Z,80.79
2019-03-26T08:48:33.387Z,79.84
2019-03-26T08:51:04.022Z,79.97
2019-03-26T08:53:33.446Z,79.50
2019-03-26T08:56:02.908Z,79.48
2019-03-26T08:58:32.315Z,80.01
2019-03-26T09:01:01.760Z,79.68
2019-03-26T09:03:32.284Z,79.75
2019-03-26T09:06:01.734Z,79.68
2019-03-26T09:08:31.155Z,79.45
2019-03-26T09:11:03.032Z,79.47
2019-03-26T09:13:32.437Z,79.60
2019-03-26T09:16:02.713Z,78.63
2019-03-26T09:18:32.157Z,79.04
2019-03-26T09:21:01.595Z,76.54
2019-03-26T09:23:31.034Z,75.01
2019-03-26T09:26:00.438Z,73.77
2019-03-26T09:28:31.283Z,72.25
2019-03-26T09:31:00.940Z,73.08
2019-03-26T09:33:30.391Z,72.46
2019-03-26T09:35:59.805Z,73.12
2019-03-26T09:38:38.931Z,72.19
2019-03-26T09:41:00.350Z,72.50
2019-03-26T09:43:29.796Z,72.34
2019-03-26T09:45:59.270Z,71.95
2019-03-26T09:48:28.724Z,71.91
2019-03-26T09:50:58.139Z,71.75
2019-03-26T09:53:27.594Z,71.35
2019-03-26T09:55:56.998Z,71.70
2019-03-26T09:58:26.451Z,70.43
2019-03-26T10:00:56.331Z,70.60
2019-03-26T10:03:25.793Z,70.65
2019-03-26T10:05:55.287Z,70.33
2019-03-26T10:08:25.159Z,69.24
2019-03-26T10:10:54.611Z,69.19
2019-03-26T10:13:24.399Z,69.74
2019-03-26T10:15:53.811Z,68.96
2019-03-26T10:18:24.438Z,68.85
2019-03-26T10:20:53.855Z,69.83
2019-03-26T10:23:23.289Z,69.31
2019-03-26T10:25:52.716Z,69.00
2019-03-26T10:28:22.630Z,69.29
2019-03-26T10:30:52.271Z,69.24
2019-03-26T10:33:21.708Z,69.80
2019-03-26T10:35:51.125Z,70.08
2019-03-26T10:38:20.577Z,69.94
2019-03-26T10:40:49.975Z,70.48
2019-03-26T10:43:19.414Z,71.09
2019-03-26T10:45:48.823Z,70.25
2019-03-26T10:48:18.298Z,69.96
2019-03-26T10:50:47.730Z,70.23
2019-03-26T10:53:18.599Z,69.82
2019-03-26T10:55:48.009Z,70.04
2019-03-26T10:58:17.506Z,69.74
2019-03-26T11:00:46.919Z,67.92
2019-03-26T11:03:16.578Z,67.44
2019-03-26T11:05:45.997Z,66.26
2019-03-26T11:08:15.439Z,66.70
2019-03-26T11:10:44.849Z,66.07
2019-03-26T11:13:16.175Z,65.65
2019-03-26T11:15:45.590Z,66.02
2019-03-26T11:18:15.040Z,65.74
2019-03-26T11:20:44.475Z,65.56
2019-03-26T11:23:13.914Z,65.54
2019-03-26T11:25:43.355Z,65.34
2019-03-26T11:28:12.767Z,64.81
2019-03-26T11:30:42.229Z,64.46
2019-03-26T11:33:11.644Z,64.15
2019-03-26T11:35:41.138Z,64.14
2019-03-26T11:38:10.548Z,64.33
2019-03-26T11:40:40.008Z,65.14
2019-03-26T11:43:12.143Z,66.08
2019-03-26T11:45:41.584Z,66.66
2019-03-26T11:48:11.002Z,66.76
2019-03-26T11:50:40.484Z,66.53
2019-03-26T11:53:10.003Z,65.79
2019-03-26T11:55:39.656Z,64.90
2019-03-26T11:58:09.067Z,62.13
2019-03-26T12:00:39.353Z,60.97
2019-03-26T12:03:08.877Z,59.84
2019-03-26T12:05:38.329Z,58.02
2019-03-26T12:08:07.866Z,57.02
2019-03-26T12:10:38.792Z,57.28
2019-03-26T12:13:08.210Z,56.81
2019-03-26T12:15:37.651Z,54.06
2019-03-26T12:18:07.077Z,55.13
2019-03-26T12:20:36.494Z,56.00
2019-03-26T12:23:05.901Z,56.98
2019-03-26T12:25:35.447Z,58.21
2019-03-26T12:28:05.200Z,58.97
2019-03-26T12:30:35.978Z,59.32
2019-03-26T12:33:05.617Z,58.69
2019-03-26T12:35:35.343Z,58.35
2019-03-26T12:38:08.308Z,57.45
2019-03-26T12:40:37.762Z,56.98
2019-03-26T12:43:07.228Z,57.39
2019-03-26T12:45:36.565Z,57.33
2019-03-26T12:48:05.976Z,58.53
2019-03-26T12:50:35.416Z,59.58
2019-03-26T12:53:04.818Z,60.89
2019-03-26T12:55:34.272Z,61.94
2019-03-26T12:58:03.692Z,61.89
2019-03-26T13:00:33.570Z,59.65
2019-03-26T13:03:03.071Z,60.90
2019-03-26T13:05:32.619Z,62.30
2019-03-26T13:08:02.023Z,61.45
2019-03-26T13:10:31.884Z,62.38
2019-03-26T13:13:01.291Z,62.41
2019-03-26T13:15:30.819Z,62.01
2019-03-26T13:18:00.225Z,60.54
2019-03-26T13:20:29.668Z,58.92
2019-03-26T13:22:59.074Z,57.61
2019-03-26T13:25:29.072Z,57.61
2019-03-26T13:27:58.477Z,57.54
2019-03-26T13:30:27.911Z,59.12
2019-03-26T13:32:57.349Z,58.99
2019-03-26T13:35:26.762Z,59.75
2019-03-26T13:37:56.358Z,58.26
2019-03-26T13:40:27.559Z,59.21
2019-03-26T13:42:57.100Z,60.21
2019-03-26T13:45:26.514Z,60.61
2019-03-26T13:47:55.963Z,62.01
2019-03-26T13:50:25.362Z,63.55
2019-03-26T13:52:54.809Z,64.52
2019-03-26T13:55:24.267Z,64.49
2019-03-26T13:57:53.774Z,64.43
2019-03-26T14:00:26.432Z,64.24
2019-03-26T14:02:55.876Z,63.82
2019-03-26T14:05:25.953Z,64.06
2019-03-26T14:07:55.388Z,64.24
2019-03-26T14:10:24.823Z,65.33
2019-03-26T14:12:54.270Z,64.83
2019-03-26T14:15:23.695Z,65.33
2019-03-26T14:17:53.147Z,65.56
2019-03-26T14:20:22.571Z,65.47
2019-03-26T14:22:52.007Z,65.70
2019-03-26T14:25:21.418Z,65.96
2019-03-26T14:27:50.846Z,66.08
2019-03-26T14:30:26.169Z,65.96
2019-03-26T14:32:55.608Z,65.62
2019-03-26T14:35:25.013Z,65.08
2019-03-26T14:37:54.447Z,66.19
2019-03-26T14:40:23.852Z,67.16
2019-03-26T14:42:53.309Z,70.32
2019-03-26T14:45:22.721Z,68.93
2019-03-26T14:47:52.160Z,70.18
2019-03-26T14:50:21.577Z,70.51
2019-03-26T14:52:51.017Z,70.47
2019-03-26T14:55:20.428Z,70.79
2019-03-26T14:57:49.882Z,70.75
2019-03-26T15:00:19.291Z,70.03
2019-03-26T15:02:48.728Z,69.63
2019-03-26T15:05:18.140Z,69.40
2019-03-26T15:07:47.579Z,68.95
2019-03-26T15:10:16.988Z,68.63
2019-03-26T15:12:46.424Z,67.52
2019-03-26T15:15:15.832Z,67.32
2019-03-26T15:17:45.268Z,67.83
2019-03-26T15:20:14.670Z,68.28
2019-03-26T15:22:44.111Z,67.22
2019-03-26T15:25:13.533Z,69.22
2019-03-26T15:27:42.967Z,70.37
2019-03-26T15:30:12.371Z,72.36
2019-03-26T15:32:41.812Z,75.66
2019-03-26T15:35:11.226Z,73.86
2019-03-26T15:37:40.669Z,72.00
2019-03-26T15:40:10.078Z,72.43
2019-03-26T15:42:39.537Z,72.55
2019-03-26T15:45:09.043Z,72.88
2019-03-26T15:47:38.489Z,71.94
2019-03-26T15:50:07.933Z,71.31
2019-03-26T15:52:37.349Z,71.59
2019-03-26T15:55:06.791Z,71.60
2019-03-26T15:57:36.214Z,70.37
2019-03-26T16:00:07.809Z,69.02
2019-03-26T16:02:37.213Z,69.22
2019-03-26T16:05:08.096Z,69.10
2019-03-26T16:07:37.505Z,68.66
2019-03-26T16:10:07.504Z,67.90
2019-03-26T16:12:41.290Z,68.56
2019-03-26T16:15:08.045Z,69.13
2019-03-26T16:17:37.462Z,68.20
2019-03-26T16:20:07.079Z,67.75
2019-03-26T16:22:36.485Z,69.05
2019-03-26T16:25:06.187Z,67.60
2019-03-26T16:27:35.598Z,67.76
2019-03-26T16:30:06.747Z,67.69
2019-03-26T16:32:36.167Z,68.38
2019-03-26T16:35:06.162Z,68.08
2019-03-26T16:37:35.577Z,68.32
2019-03-26T16:40:06.289Z,66.54
2019-03-26T16:42:35.706Z,66.18
2019-03-26T16:45:06.329Z,65.97
2019-03-26T16:47:36.065Z,66.30
2019-03-26T16:50:07.457Z,65.19
2019-03-26T16:52:36.875Z,65.27
2019-03-26T16:55:06.684Z,65.14
2019-03-26T16:57:36.982Z,65.27
2019-03-26T17:00:06.554Z,65.29
2019-03-26T17:02:36.082Z,65.62
2019-03-26T17:05:06.293Z,65.41
2019-03-26T17:07:36.073Z,65.73
2019-03-26T17:10:08.556Z,66.34
2019-03-26T17:12:37.967Z,65.73
2019-03-26T17:15:08.081Z,66.08
2019-03-26T17:17:37.496Z,66.36
2019-03-26T17:20:07.000Z,66.58
2019-03-26T17:22:36.413Z,66.28
2019-03-26T17:25:08.613Z,65.24
2019-03-26T17:27:38.032Z,65.47
2019-03-26T17:30:07.476Z,65.06
2019-03-26T17:32:36.891Z,64.91
2019-03-26T17:35:06.804Z,66.27
2019-03-26T17:37:36.215Z,64.76
2019-03-26T17:40:05.658Z,65.20
2019-03-26T17:42:35.066Z,65.71
2019-03-26T17:45:05.456Z,65.16
2019-03-26T17:47:34.880Z,64.42
2019-03-26T17:50:06.356Z,64.14
2019-03-26T17:52:36.074Z,64.40
2019-03-26T17:55:07.186Z,63.65
2019-03-26T17:57:36.604Z,63.58
2019-03-26T18:00:11.492Z,64.30
2019-03-26T18:02:40.968Z,63.83
2019-03-26T18:05:25.091Z,64.06
2019-03-26T18:07:54.512Z,63.95
2019-03-26T18:10:23.957Z,64.01
2019-03-26T18:12:53.384Z,64.91
2019-03-26T18:15:22.838Z,64.27
2019-03-26T18:17:52.252Z,64.28
2019-03-26T18:20:31.948Z,64.17
2019-03-26T18:22:52.790Z,63.76
2019-03-26T18:25:22.231Z,64.42
2019-03-26T18:27:51.653Z,64.02
2019-03-26T18:30:21.113Z,64.23
2019-03-26T18:32:50.548Z,65.13
2019-03-26T18:35:19.959Z,65.57
2019-03-26T18:37:49.417Z,64.37
2019-03-26T18:40:18.830Z,64.91
2019-03-26T18:42:48.288Z,67.12
2019-03-26T18:45:46.305Z,68.40
2019-03-26T18:48:19.802Z,70.34
2019-03-26T18:50:49.232Z,71.51
2019-03-26T18:53:18.676Z,71.82
2019-03-26T18:55:48.088Z,71.19
2019-03-26T18:58:17.533Z,71.28
2019-03-26T19:00:46.957Z,72.56
2019-03-26T19:03:16.398Z,71.68
2019-03-26T19:05:45.821Z,71.56
2019-03-26T19:08:15.265Z,71.56
2019-03-26T19:10:44.685Z,71.52
2019-03-26T19:13:19.792Z,71.21
2019-03-26T19:15:45.245Z,71.12
2019-03-26T19:18:14.692Z,70.98
2019-03-26T19:20:44.116Z,70.74
2019-03-26T19:23:13.553Z,71.31
2019-03-26T19:25:42.970Z,71.23
2019-03-26T19:28:12.421Z,70.79
2019-03-26T19:30:41.842Z,71.45
2019-03-26T19:33:11.281Z,71.73
2019-03-26T19:35:40.729Z,70.56
2019-03-26T19:38:10.176Z,71.56
2019-03-26T19:40:39.594Z,71.28
2019-03-26T19:43:11.103Z,71.49
2019-03-26T19:45:40.149Z,70.81
2019-03-26T19:48:09.588Z,70.87
2019-03-26T19:50:38.998Z,70.77
2019-03-26T19:53:08.441Z,70.95
2019-03-26T19:55:37.860Z,70.63
2019-03-26T19:58:07.296Z,70.38
2019-03-26T20:00:36.706Z,69.68
2019-03-26T20:03:06.147Z,69.98
2019-03-26T20:05:35.810Z,69.76
2019-03-26T20:08:05.296Z,70.58
2019-03-26T20:10:34.866Z,69.01
2019-03-26T20:13:04.322Z,68.37
2019-03-26T20:15:33.728Z,68.82
2019-03-26T20:18:03.166Z,68.41
2019-03-26T20:20:32.579Z,68.91
2019-03-26T20:23:02.348Z,69.18
2019-03-26T20:25:31.856Z,70.13
2019-03-26T20:28:01.376Z,71.91
2019-03-26T20:30:30.776Z,73.68
2019-03-26T20:33:00.220Z,73.83
2019-03-26T20:35:29.665Z,74.21
2019-03-26T20:37:59.341Z,75.65
2019-03-26T20:40:29.343Z,74.31
2019-03-26T20:42:58.752Z,75.00
2019-03-26T20:45:28.187Z,75.11
2019-03-26T20:47:57.600Z,75.70
2019-03-26T20:50:27.043Z,75.31
2019-03-26T20:52:56.461Z,76.58
2019-03-26T20:55:31.102Z,76.34
2019-03-26T20:58:00.587Z,75.29
2019-03-26T21:00:37.452Z,75.26
2019-03-26T21:03:06.937Z,76.34
2019-03-26T21:05:36.384Z,75.38
2019-03-26T21:08:06.085Z,76.70
2019-03-26T21:10:35.540Z,76.43
2019-03-26T21:13:04.955Z,76.24
2019-03-26T21:15:34.906Z,75.14
2019-03-26T21:18:04.328Z,75.26
2019-03-26T21:20:34.292Z,75.12
2019-03-26T21:23:03.713Z,75.00
2019-03-26T21:25:33.169Z,74.74
2019-03-26T21:28:03.532Z,76.04
2019-03-26T21:30:32.998Z,76.07
2019-03-26T21:33:02.476Z,76.65
2019-03-26T21:35:32.256Z,76.71
2019-03-26T21:38:01.671Z,77.22
2019-03-26T21:40:31.644Z,77.22
2019-03-26T21:43:01.207Z,78.27
2019-03-26T21:45:35.893Z,78.88
2019-03-26T21:48:05.945Z,79.29
2019-03-26T21:50:35.397Z,79.70
2019-03-26T21:53:04.821Z,80.29
2019-03-26T21:55:34.273Z,80.71
2019-03-26T21:58:03.700Z,81.25
2019-03-26T22:00:33.150Z,79.91
2019-03-26T22:03:02.566Z,79.48
2019-03-26T22:05:32.474Z,79.23
2019-03-26T22:08:01.891Z,79.18
2019-03-26T22:10:31.355Z,79.81
2019-03-26T22:13:00.968Z,80.37
2019-03-26T22:15:30.408Z,80.54
2019-03-26T22:17:59.823Z,80.61
2019-03-26T22:20:29.524Z,80.07
2019-03-26T22:22:58.982Z,80.46
2019-03-26T22:25:28.466Z,81.71
2019-03-26T22:27:57.881Z,81.45
2019-03-26T22:30:27.324Z,80.90
2019-03-26T22:32:56.737Z,80.93
2019-03-26T22:35:26.185Z,81.42
2019-03-26T22:37:55.601Z,81.47
2019-03-26T22:40:25.050Z,81.50
2019-03-26T22:42:54.463Z,81.58
2019-03-26T22:45:23.920Z,81.56
2019-03-26T22:47:53.332Z,80.86
2019-03-26T22:50:22.776Z,81.16
2019-03-26T22:52:52.196Z,81.20
2019-03-26T22:55:21.640Z,81.27
2019-03-26T22:57:51.069Z,81.94
2019-03-26T23:00:20.744Z,82.20
2019-03-26T23:02:50.189Z,82.54
2019-03-26T23:05:19.715Z,82.05
2019-03-26T23:07:49.147Z,81.74
2019-03-26T23:10:19.037Z,81.47
2019-03-26T23:12:48.481Z,81.50
2019-03-26T23:15:20.701Z,81.42
2019-03-26T23:17:50.141Z,81.45
2019-03-26T23:20:19.552Z,82.07
2019-03-26T23:22:49.011Z,82.23
2019-03-26T23:25:18.429Z,82.25
2019-03-26T23:27:47.890Z,82.48
2019-03-26T23:30:17.305Z,82.46
2019-03-26T23:32:46.745Z,82.64
2019-03-26T23:35:16.160Z,82.57
2019-03-26T23:37:45.593Z,83.57
2019-03-26T23:40:15.014Z,83.63
2019-03-26T23:42:44.456Z,83.51
2019-03-26T23:45:13.875Z,82.97
2019-03-26T23:47:43.310Z,82.79
2019-03-26T23:50:12.723Z,82.74
2019-03-26T23:52:42.163Z,82.29
2019-03-26T23:55:11.576Z,82.08
2019-03-26T23:57:41.015Z,81.58
